createdAt,value
2018-08-28T00:00:15.871Z,6.70
2018-08-28T00:01:15.957Z,6.90
2018-08-28T00:02:15.844Z,7.30
2018-08-28T00:03:15.831Z,8.10
2018-08-28T00:04:15.819Z,7.70
2018-08-28T00:05:15.804Z,6.80
2018-08-28T00:06:15.791Z,7.20
2018-08-28T00:07:15.779Z,7.20
2018-08-28T00:08:15.763Z,7.20
2018-08-28T00:09:15.750Z,7.60
2018-08-28T00:10:15.739Z,7.40
2018-08-28T00:11:15.726Z,7.40
2018-08-28T00:12:15.712Z,7.40
2018-08-28T00:13:15.699Z,8.40
2018-08-28T00:14:15.686Z,8.20
2018-08-28T00:15:15.673Z,8.40
2018-08-28T00:16:15.660Z,8.70
2018-08-28T00:17:15.648Z,8.40
2018-08-28T00:18:15.635Z,9.00
2018-08-28T00:19:15.620Z,8.90
2018-08-28T00:20:15.610Z,9.00
2018-08-28T00:21:15.595Z,10.40
2018-08-28T00:22:15.582Z,10.10
2018-08-28T00:23:15.568Z,9.60
2018-08-28T00:24:15.566Z,10.00
2018-08-28T00:25:15.542Z,10.30
2018-08-28T00:26:15.530Z,9.90
2018-08-28T00:27:15.516Z,9.50
2018-08-28T00:28:15.504Z,10.20
2018-08-28T00:29:15.491Z,10.60
2018-08-28T00:30:15.478Z,9.70
2018-08-28T00:31:15.465Z,10.20
2018-08-28T00:32:15.450Z,9.70
2018-08-28T00:33:15.440Z,10.50
2018-08-28T00:34:15.426Z,9.90
2018-08-28T00:35:15.418Z,10.10
2018-08-28T00:36:15.398Z,10.50
2018-08-28T00:37:15.387Z,10.90
2018-08-28T00:38:15.374Z,11.90
2018-08-28T00:39:15.361Z,11.50
2018-08-28T00:40:15.350Z,11.70
2018-08-28T00:41:15.335Z,10.80
2018-08-28T00:42:15.320Z,11.40
2018-08-28T00:43:15.309Z,10.50
2018-08-28T00:44:15.295Z,10.70
2018-08-28T00:45:15.287Z,11.00
2018-08-28T00:46:15.270Z,11.40
2018-08-28T00:47:15.258Z,11.40
2018-08-28T00:48:15.242Z,11.90
2018-08-28T00:49:15.230Z,12.00
2018-08-28T00:50:15.218Z,11.80
2018-08-28T00:51:15.206Z,11.90
2018-08-28T00:52:15.209Z,12.70
2018-08-28T00:53:15.179Z,12.30
2018-08-28T00:54:15.166Z,11.90
2018-08-28T00:55:15.153Z,12.70
2018-08-28T00:56:15.140Z,11.90
2018-08-28T00:57:15.130Z,12.80
2018-08-28T00:58:15.113Z,11.90
2018-08-28T00:59:15.101Z,12.70
2018-08-28T01:00:15.087Z,12.70
2018-08-28T01:01:15.074Z,12.20
2018-08-28T01:02:15.060Z,12.90
2018-08-28T01:03:15.049Z,12.40
2018-08-28T01:04:15.035Z,11.80
2018-08-28T01:05:15.023Z,12.50
2018-08-28T01:06:15.009Z,12.70
2018-08-28T01:07:14.999Z,11.80
2018-08-28T01:08:14.982Z,12.50
2018-08-28T01:09:14.969Z,13.60
2018-08-28T01:10:14.961Z,12.70
2018-08-28T01:11:14.946Z,12.70
2018-08-28T01:12:14.932Z,12.20
2018-08-28T01:13:14.918Z,13.50
2018-08-28T01:14:14.906Z,13.30
2018-08-28T01:15:14.895Z,13.80
2018-08-28T01:16:14.880Z,12.40
2018-08-28T01:17:14.867Z,12.80
2018-08-28T01:18:14.854Z,12.20
2018-08-28T01:19:14.848Z,12.90
2018-08-28T01:20:14.829Z,12.50
2018-08-28T01:21:14.816Z,13.80
2018-08-28T01:22:14.806Z,13.60
2018-08-28T01:23:14.791Z,12.10
2018-08-28T01:24:14.780Z,12.30
2018-08-28T01:25:14.764Z,13.40
2018-08-28T01:26:14.753Z,13.10
2018-08-28T01:27:14.740Z,13.30
2018-08-28T01:28:14.726Z,12.90
2018-08-28T01:29:14.715Z,12.60
2018-08-28T01:30:14.701Z,13.30
2018-08-28T01:31:14.688Z,13.60
2018-08-28T01:32:14.675Z,13.00
2018-08-28T01:33:14.661Z,13.50
2018-08-28T01:34:14.650Z,14.90
2018-08-28T01:35:14.637Z,13.90
2018-08-28T01:36:14.623Z,13.40
2018-08-28T01:37:14.652Z,14.00
2018-08-28T01:38:14.597Z,14.60
2018-08-28T01:39:14.586Z,14.60
2018-08-28T01:40:14.573Z,14.90
2018-08-28T01:41:14.564Z,14.40
2018-08-28T01:42:14.548Z,14.30
2018-08-28T01:43:14.536Z,15.10
2018-08-28T01:44:14.522Z,14.90
2018-08-28T01:45:14.508Z,14.00
2018-08-28T01:46:14.496Z,13.40
2018-08-28T01:47:14.484Z,14.10
2018-08-28T01:48:14.472Z,14.80
2018-08-28T01:49:14.457Z,13.00
2018-08-28T01:50:14.444Z,12.90
2018-08-28T01:51:14.433Z,13.20
2018-08-28T01:52:14.420Z,13.20
2018-08-28T01:53:14.406Z,12.20
2018-08-28T01:54:14.393Z,12.70
2018-08-28T01:55:14.482Z,13.80
2018-08-28T01:56:14.366Z,13.70
2018-08-28T01:57:14.355Z,12.60
2018-08-28T01:58:14.341Z,13.00
2018-08-28T01:59:14.330Z,12.00
2018-08-28T02:00:14.315Z,11.70
2018-08-28T02:01:14.453Z,12.90
2018-08-28T02:02:14.294Z,11.40
2018-08-28T02:03:14.280Z,10.80
2018-08-28T02:04:14.264Z,11.20
2018-08-28T02:05:14.253Z,11.30
2018-08-28T02:06:14.240Z,11.10
2018-08-28T02:07:14.228Z,10.80
2018-08-28T02:08:14.213Z,10.50
2018-08-28T02:09:14.201Z,11.20
2018-08-28T02:10:14.191Z,11.60
2018-08-28T02:11:14.177Z,11.30
2018-08-28T02:12:14.161Z,11.90
2018-08-28T02:13:14.287Z,12.40
2018-08-28T02:14:14.137Z,11.60
2018-08-28T02:15:14.125Z,12.20
2018-08-28T02:16:14.111Z,11.50
2018-08-28T02:17:14.102Z,12.10
2018-08-28T02:18:14.087Z,10.80
2018-08-28T02:19:14.176Z,10.30
2018-08-28T02:20:14.060Z,12.00
2018-08-28T02:21:14.046Z,9.70
2018-08-28T02:22:14.036Z,11.60
2018-08-28T02:23:14.023Z,11.00
2018-08-28T02:24:14.010Z,11.70
2018-08-28T02:25:13.997Z,11.10
2018-08-28T02:26:13.984Z,9.80
2018-08-28T02:27:13.972Z,10.70
2018-08-28T02:28:13.959Z,11.40
2018-08-28T02:29:13.946Z,10.70
2018-08-28T02:30:13.934Z,11.10
2018-08-28T02:31:13.922Z,10.10
2018-08-28T02:32:13.906Z,9.70
2018-08-28T02:33:13.894Z,10.90
2018-08-28T02:34:13.883Z,10.40
2018-08-28T02:35:13.870Z,10.10
2018-08-28T02:36:13.857Z,9.70
2018-08-28T02:37:13.844Z,10.80
2018-08-28T02:38:13.834Z,11.30
2018-08-28T02:39:13.820Z,10.30
2018-08-28T02:40:13.806Z,10.20
2018-08-28T02:41:13.793Z,9.70
2018-08-28T02:42:13.781Z,9.30
2018-08-28T02:43:13.770Z,10.20
2018-08-28T02:44:13.759Z,11.30
2018-08-28T02:45:13.743Z,11.30
2018-08-28T02:46:13.731Z,11.50
2018-08-28T02:47:13.718Z,10.80
2018-08-28T02:48:13.708Z,10.50
2018-08-28T02:49:13.692Z,10.10
2018-08-28T02:50:13.680Z,9.70
2018-08-28T02:51:13.667Z,10.80
2018-08-28T02:52:13.652Z,11.00
2018-08-28T02:53:13.642Z,11.30
2018-08-28T02:54:13.629Z,10.60
2018-08-28T02:55:13.617Z,10.70
2018-08-28T02:56:13.640Z,11.90
2018-08-28T02:57:13.591Z,10.40
2018-08-28T02:58:13.579Z,9.60
2018-08-28T02:59:13.567Z,12.20
2018-08-28T03:00:13.553Z,10.50
2018-08-28T03:01:13.790Z,9.50
2018-08-28T03:02:13.528Z,10.50
2018-08-28T03:03:13.516Z,11.40
2018-08-28T03:04:13.502Z,11.70
2018-08-28T03:05:13.491Z,11.50
2018-08-28T03:06:13.477Z,10.80
2018-08-28T03:07:13.565Z,11.70
2018-08-28T03:08:13.449Z,11.00
2018-08-28T03:09:13.439Z,12.30
2018-08-28T03:10:13.426Z,11.50
2018-08-28T03:11:13.435Z,10.00
2018-08-28T03:12:13.404Z,12.60
2018-08-28T03:13:13.390Z,11.00
2018-08-28T03:14:13.375Z,10.00
2018-08-28T03:15:13.364Z,10.30
2018-08-28T03:16:13.349Z,10.90
2018-08-28T03:17:13.336Z,12.10
2018-08-28T03:18:13.324Z,10.60
2018-08-28T03:19:13.414Z,10.40
2018-08-28T03:20:13.297Z,13.50
2018-08-28T03:21:13.285Z,10.20
2018-08-28T03:22:13.271Z,10.80
2018-08-28T03:23:13.260Z,13.10
2018-08-28T03:24:13.242Z,11.40
2018-08-28T03:25:13.230Z,10.40
2018-08-28T03:26:13.217Z,12.60
2018-08-28T03:27:13.205Z,11.80
2018-08-28T03:28:13.197Z,10.30
2018-08-28T03:29:13.326Z,13.20
2018-08-28T03:30:13.170Z,11.70
2018-08-28T03:31:13.257Z,11.40
2018-08-28T03:32:13.146Z,11.70
2018-08-28T03:33:13.135Z,10.70
2018-08-28T03:34:13.119Z,9.60
2018-08-28T03:35:13.107Z,9.80
2018-08-28T03:36:13.093Z,11.00
2018-08-28T03:37:13.114Z,10.40
2018-08-28T03:38:13.071Z,10.60
2018-08-28T03:39:13.054Z,10.20
2018-08-28T03:40:13.038Z,11.30
2018-08-28T03:41:13.031Z,10.00
2018-08-28T03:42:13.017Z,11.10
2018-08-28T03:43:13.003Z,10.70
2018-08-28T03:44:12.989Z,10.90
2018-08-28T03:45:12.979Z,10.40
2018-08-28T03:46:12.962Z,9.50
2018-08-28T03:47:12.952Z,9.30
2018-08-28T03:48:12.937Z,10.30
2018-08-28T03:49:13.027Z,11.50
2018-08-28T03:50:12.915Z,11.60
2018-08-28T03:51:12.899Z,9.80
2018-08-28T03:52:12.886Z,11.90
2018-08-28T03:53:12.873Z,11.20
2018-08-28T03:54:12.861Z,11.70
2018-08-28T03:55:12.858Z,11.90
2018-08-28T03:56:12.836Z,11.60
2018-08-28T03:57:12.824Z,11.20
2018-08-28T03:58:12.811Z,12.30
2018-08-28T03:59:12.803Z,12.90
2018-08-28T04:00:12.824Z,12.80
2018-08-28T04:01:12.880Z,16.90
2018-08-28T04:02:12.765Z,15.70
2018-08-28T04:03:12.757Z,17.20
2018-08-28T04:04:12.737Z,14.60
2018-08-28T04:05:12.727Z,16.50
2018-08-28T04:06:12.713Z,14.90
2018-08-28T04:07:12.702Z,14.60
2018-08-28T04:08:12.688Z,16.10
2018-08-28T04:09:12.671Z,16.70
2018-08-28T04:10:12.661Z,14.70
2018-08-28T04:11:12.648Z,15.40
2018-08-28T04:12:12.635Z,14.60
2018-08-28T04:13:12.622Z,15.90
2018-08-28T04:14:12.610Z,14.40
2018-08-28T04:15:12.597Z,14.20
2018-08-28T04:16:12.588Z,16.70
2018-08-28T04:17:12.644Z,15.10
2018-08-28T04:18:12.558Z,13.40
2018-08-28T04:19:12.646Z,14.80
2018-08-28T04:20:12.533Z,14.90
2018-08-28T04:21:12.520Z,14.90
2018-08-28T04:22:12.510Z,14.60
2018-08-28T04:23:12.497Z,13.10
2018-08-28T04:24:12.482Z,15.20
2018-08-28T04:25:12.470Z,12.10
2018-08-28T04:26:12.458Z,13.60
2018-08-28T04:27:12.445Z,12.70
2018-08-28T04:28:12.432Z,13.30
2018-08-28T04:29:12.420Z,12.00
2018-08-28T04:30:12.407Z,11.50
2018-08-28T04:31:12.394Z,11.10
2018-08-28T04:32:12.381Z,11.40
2018-08-28T04:33:12.368Z,12.30
2018-08-28T04:34:12.357Z,12.20
2018-08-28T04:35:12.345Z,10.80
2018-08-28T04:36:12.332Z,12.30
2018-08-28T04:37:12.319Z,11.90
2018-08-28T04:38:12.307Z,11.70
2018-08-28T04:39:12.295Z,11.60
2018-08-28T04:40:12.280Z,11.60
2018-08-28T04:41:12.269Z,11.40
2018-08-28T04:42:12.255Z,10.30
2018-08-28T04:43:12.346Z,11.50
2018-08-28T04:44:12.230Z,10.80
2018-08-28T04:45:12.217Z,10.20
2018-08-28T04:46:12.206Z,12.10
2018-08-28T04:47:12.192Z,11.40
2018-08-28T04:48:12.180Z,9.50
2018-08-28T04:49:12.169Z,13.70
2018-08-28T04:50:12.156Z,10.30
2018-08-28T04:51:12.142Z,9.70
2018-08-28T04:52:12.128Z,11.80
2018-08-28T04:53:12.114Z,9.70
2018-08-28T04:54:12.122Z,10.40
2018-08-28T04:55:12.191Z,11.40
2018-08-28T04:56:12.077Z,12.00
2018-08-28T04:57:12.067Z,13.70
2018-08-28T04:58:12.052Z,13.30
2018-08-28T04:59:12.044Z,10.40
2018-08-28T05:00:12.027Z,12.10
2018-08-28T05:01:12.164Z,12.60
2018-08-28T05:02:12.002Z,10.70
2018-08-28T05:03:11.990Z,11.20
2018-08-28T05:04:11.978Z,11.50
2018-08-28T05:05:11.974Z,10.60
2018-08-28T05:06:11.964Z,11.30
2018-08-28T05:07:11.939Z,11.00
2018-08-28T05:08:11.926Z,10.20
2018-08-28T05:09:11.915Z,14.70
2018-08-28T05:10:11.901Z,12.70
2018-08-28T05:11:11.888Z,12.80
2018-08-28T05:12:11.878Z,14.40
2018-08-28T05:13:11.857Z,12.50
2018-08-28T05:14:11.852Z,15.90
2018-08-28T05:15:11.834Z,17.00
2018-08-28T05:16:11.826Z,14.30
2018-08-28T05:17:11.814Z,15.70
2018-08-28T05:18:11.802Z,15.20
2018-08-28T05:19:11.826Z,14.40
2018-08-28T05:20:11.776Z,14.50
2018-08-28T05:21:11.773Z,14.60
2018-08-28T05:22:11.746Z,14.40
2018-08-28T05:23:11.734Z,16.50
2018-08-28T05:24:11.720Z,16.00
2018-08-28T05:25:11.707Z,17.40
2018-08-28T05:26:11.703Z,13.90
2018-08-28T05:27:11.690Z,15.00
2018-08-28T05:28:11.669Z,15.40
2018-08-28T05:29:11.667Z,15.90
2018-08-28T05:30:11.654Z,13.10
2018-08-28T05:31:11.733Z,14.30
2018-08-28T05:32:11.631Z,12.20
2018-08-28T05:33:11.609Z,11.90
2018-08-28T05:34:11.603Z,16.30
2018-08-28T05:35:11.582Z,14.70
2018-08-28T05:36:11.578Z,12.30
2018-08-28T05:37:11.558Z,16.10
2018-08-28T05:38:11.579Z,13.10
2018-08-28T05:39:11.532Z,13.10
2018-08-28T05:40:11.518Z,13.70
2018-08-28T05:41:11.516Z,15.90
2018-08-28T05:42:11.506Z,12.10
2018-08-28T05:43:11.491Z,11.10
2018-08-28T05:44:11.468Z,14.30
2018-08-28T05:45:11.465Z,14.30
2018-08-28T05:46:11.444Z,8.90
2018-08-28T05:47:11.430Z,10.60
2018-08-28T05:48:11.429Z,8.50
2018-08-28T05:49:11.557Z,10.20
2018-08-28T05:50:11.402Z,10.10
2018-08-28T05:51:11.389Z,9.90
2018-08-28T05:52:11.370Z,10.20
2018-08-28T05:53:11.363Z,9.40
2018-08-28T05:54:11.343Z,9.00
2018-08-28T05:55:11.339Z,8.40
2018-08-28T05:56:11.407Z,8.80
2018-08-28T05:57:11.304Z,7.80
2018-08-28T05:58:11.293Z,8.20
2018-08-28T05:59:11.280Z,7.10
2018-08-28T06:00:11.268Z,6.90
2018-08-28T06:01:11.257Z,8.60
2018-08-28T06:02:11.245Z,6.50
2018-08-28T06:03:11.322Z,6.20
2018-08-28T06:04:11.217Z,7.80
2018-08-28T06:05:11.206Z,7.80
2018-08-28T06:06:11.192Z,7.40
2018-08-28T06:07:11.181Z,6.80
2018-08-28T06:08:11.166Z,6.40
2018-08-28T06:09:11.154Z,7.50
2018-08-28T06:10:11.142Z,7.50
2018-08-28T06:11:11.129Z,5.90
2018-08-28T06:12:11.116Z,6.80
2018-08-28T06:13:11.103Z,6.20
2018-08-28T06:14:11.091Z,7.10
2018-08-28T06:15:11.081Z,7.80
2018-08-28T06:16:11.066Z,8.50
2018-08-28T06:17:11.053Z,7.60
2018-08-28T06:18:11.041Z,9.60
2018-08-28T06:19:11.131Z,6.70
2018-08-28T06:20:11.017Z,6.70
2018-08-28T06:21:11.006Z,8.70
2018-08-28T06:22:10.990Z,9.50
2018-08-28T06:23:11.036Z,9.70
2018-08-28T06:24:10.965Z,8.90
2018-08-28T06:25:11.054Z,6.90
2018-08-28T06:26:10.967Z,6.80
2018-08-28T06:27:10.933Z,8.10
2018-08-28T06:28:10.919Z,6.30
2018-08-28T06:29:10.905Z,11.50
2018-08-28T06:30:10.891Z,9.20
2018-08-28T06:31:10.879Z,8.60
2018-08-28T06:32:10.871Z,9.80
2018-08-28T06:33:10.853Z,8.80
2018-08-28T06:34:10.841Z,11.20
2018-08-28T06:35:10.829Z,8.00
2018-08-28T06:36:10.816Z,8.10
2018-08-28T06:37:11.047Z,11.20
2018-08-28T06:38:10.793Z,9.70
2018-08-28T06:39:10.782Z,8.70
2018-08-28T06:40:10.766Z,9.70
2018-08-28T06:41:10.762Z,8.20
2018-08-28T06:42:10.745Z,8.40
2018-08-28T06:43:10.830Z,10.30
2018-08-28T06:44:10.716Z,12.00
2018-08-28T06:45:10.704Z,8.60
2018-08-28T06:46:10.693Z,9.30
2018-08-28T06:47:10.679Z,8.70
2018-08-28T06:48:10.667Z,12.90
2018-08-28T06:49:10.754Z,10.10
2018-08-28T06:50:10.642Z,9.00
2018-08-28T06:51:10.629Z,10.10
2018-08-28T06:52:10.619Z,9.00
2018-08-28T06:53:10.607Z,11.30
2018-08-28T06:54:10.602Z,13.30
2018-08-28T06:55:10.583Z,13.50
2018-08-28T06:56:10.568Z,9.60
2018-08-28T06:57:10.556Z,11.90
2018-08-28T06:58:10.544Z,14.10
2018-08-28T06:59:10.532Z,10.40
2018-08-28T07:00:10.519Z,10.40
2018-08-28T07:01:10.659Z,11.90
2018-08-28T07:02:10.495Z,10.70
2018-08-28T07:03:10.483Z,11.80
2018-08-28T07:04:10.475Z,12.50
2018-08-28T07:05:10.461Z,11.90
2018-08-28T07:06:10.445Z,12.20
2018-08-28T07:07:10.594Z,10.50
2018-08-28T07:08:10.421Z,11.10
2018-08-28T07:09:10.407Z,8.90
2018-08-28T07:10:10.432Z,10.60
2018-08-28T07:11:10.385Z,12.50
2018-08-28T07:12:10.370Z,14.70
2018-08-28T07:13:10.358Z,11.20
2018-08-28T07:14:10.346Z,11.30
2018-08-28T07:15:10.334Z,13.00
2018-08-28T07:16:10.321Z,11.00
2018-08-28T07:17:10.312Z,12.50
2018-08-28T07:18:10.297Z,12.90
2018-08-28T07:19:10.485Z,11.10
2018-08-28T07:20:10.272Z,11.20
2018-08-28T07:21:10.260Z,12.50
2018-08-28T07:22:10.250Z,12.60
2018-08-28T07:23:10.236Z,12.90
2018-08-28T07:24:10.222Z,11.80
2018-08-28T07:25:10.310Z,12.00
2018-08-28T07:26:10.361Z,10.30
2018-08-28T07:27:10.186Z,10.50
2018-08-28T07:28:10.175Z,10.00
2018-08-28T07:29:10.160Z,11.10
2018-08-28T07:30:10.148Z,11.40
2018-08-28T07:31:10.346Z,12.30
2018-08-28T07:32:10.131Z,12.20
2018-08-28T07:33:10.111Z,10.20
2018-08-28T07:34:10.104Z,10.00
2018-08-28T07:35:10.087Z,10.80
2018-08-28T07:36:10.073Z,10.30
2018-08-28T07:37:10.066Z,10.40
2018-08-28T07:38:10.053Z,11.10
2018-08-28T07:39:10.038Z,7.70
2018-08-28T07:40:10.024Z,10.00
2018-08-28T07:41:10.012Z,7.40
2018-08-28T07:42:10.000Z,7.20
2018-08-28T07:43:10.054Z,11.10
2018-08-28T07:44:09.974Z,10.60
2018-08-28T07:45:09.964Z,9.90
2018-08-28T07:46:09.952Z,8.30
2018-08-28T07:47:09.938Z,8.00
2018-08-28T07:48:09.928Z,10.70
2018-08-28T07:49:09.912Z,7.60
2018-08-28T07:50:09.902Z,7.40
2018-08-28T07:51:09.887Z,8.70
2018-08-28T07:52:09.876Z,7.70
2018-08-28T07:53:09.864Z,6.70
2018-08-28T07:54:09.850Z,7.90
2018-08-28T07:55:09.939Z,7.50
2018-08-28T07:56:09.824Z,7.90
2018-08-28T07:57:09.814Z,8.30
2018-08-28T07:58:09.801Z,6.80
2018-08-28T07:59:09.787Z,8.80
2018-08-28T08:00:09.774Z,6.60
2018-08-28T08:01:09.762Z,7.50
2018-08-28T08:02:09.752Z,6.70
2018-08-28T08:03:09.738Z,6.00
2018-08-28T08:04:09.728Z,7.10
2018-08-28T08:05:09.712Z,6.60
2018-08-28T08:06:09.699Z,5.20
2018-08-28T08:07:09.688Z,8.00
2018-08-28T08:08:09.674Z,6.10
2018-08-28T08:09:09.662Z,6.40
2018-08-28T08:10:09.650Z,5.70
2018-08-28T08:11:09.638Z,6.00
2018-08-28T08:12:09.630Z,6.30
2018-08-28T08:13:09.712Z,6.70
2018-08-28T08:14:09.600Z,5.90
2018-08-28T08:15:09.590Z,5.10
2018-08-28T08:16:09.652Z,5.90
2018-08-28T08:17:09.563Z,5.20
2018-08-28T08:18:09.550Z,5.40
2018-08-28T08:19:09.538Z,7.80
2018-08-28T08:20:09.526Z,5.40
2018-08-28T08:21:09.514Z,6.70
2018-08-28T08:22:09.515Z,6.90
2018-08-28T08:23:09.490Z,6.90
2018-08-28T08:24:09.478Z,6.40
2018-08-28T08:25:09.466Z,4.60
2018-08-28T08:26:09.452Z,5.80
2018-08-28T08:27:09.439Z,5.40
2018-08-28T08:28:09.532Z,5.50
2018-08-28T08:29:09.414Z,5.10
2018-08-28T08:30:09.402Z,5.00
2018-08-28T08:31:09.490Z,6.60
2018-08-28T08:32:09.377Z,6.60
2018-08-28T08:33:09.365Z,5.30
2018-08-28T08:34:09.353Z,4.10
2018-08-28T08:35:09.401Z,4.40
2018-08-28T08:36:09.328Z,5.70
2018-08-28T08:37:09.316Z,5.20
2018-08-28T08:38:09.304Z,4.90
2018-08-28T08:39:09.292Z,5.40
2018-08-28T08:40:09.282Z,5.40
2018-08-28T08:41:09.267Z,6.30
2018-08-28T08:42:09.267Z,7.30
2018-08-28T08:43:09.343Z,4.80
2018-08-28T08:44:09.232Z,5.70
2018-08-28T08:45:09.219Z,6.10
2018-08-28T08:46:09.208Z,5.40
2018-08-28T08:47:09.197Z,4.80
2018-08-28T08:48:09.182Z,6.40
2018-08-28T08:49:09.270Z,6.50
2018-08-28T08:50:09.158Z,6.40
2018-08-28T08:51:09.146Z,4.90
2018-08-28T08:52:09.136Z,6.00
2018-08-28T08:53:09.122Z,5.70
2018-08-28T08:54:09.110Z,7.00
2018-08-28T08:55:09.099Z,4.70
2018-08-28T08:56:09.086Z,5.50
2018-08-28T08:57:09.098Z,4.70
2018-08-28T08:58:09.063Z,4.70
2018-08-28T08:59:09.050Z,6.00
2018-08-28T09:00:09.047Z,5.20
2018-08-28T09:01:09.176Z,5.50
2018-08-28T09:02:09.015Z,4.60
2018-08-28T09:03:09.002Z,5.10
2018-08-28T09:04:08.989Z,5.60
2018-08-28T09:05:08.978Z,6.00
2018-08-28T09:06:08.980Z,4.90
2018-08-28T09:07:08.954Z,5.20
2018-08-28T09:08:08.942Z,5.60
2018-08-28T09:09:08.933Z,7.00
2018-08-28T09:10:08.918Z,6.10
2018-08-28T09:11:08.906Z,7.40
2018-08-28T09:12:08.902Z,7.10
2018-08-28T09:13:08.982Z,5.40
2018-08-28T09:14:08.871Z,5.80
2018-08-28T09:15:08.860Z,7.00
2018-08-28T09:16:08.846Z,6.50
2018-08-28T09:17:08.834Z,6.70
2018-08-28T09:18:08.822Z,6.00
2018-08-28T09:19:08.812Z,6.70
2018-08-28T09:20:08.798Z,6.20
2018-08-28T09:21:08.787Z,6.70
2018-08-28T09:22:08.773Z,7.80
2018-08-28T09:23:08.762Z,6.80
2018-08-28T09:24:08.749Z,7.10
2018-08-28T09:25:08.737Z,7.00
2018-08-28T09:26:08.727Z,7.50
2018-08-28T09:27:08.714Z,8.00
2018-08-28T09:28:08.701Z,7.00
2018-08-28T09:29:08.694Z,8.10
2018-08-28T09:30:08.677Z,8.10
2018-08-28T09:31:08.828Z,7.60
2018-08-28T09:32:08.664Z,7.70
2018-08-28T09:33:08.641Z,8.20
2018-08-28T09:34:08.629Z,8.60
2018-08-28T09:35:08.617Z,9.10
2018-08-28T09:36:08.604Z,9.20
2018-08-28T09:37:08.595Z,9.00
2018-08-28T09:38:08.600Z,9.30
2018-08-28T09:39:08.569Z,10.10
2018-08-28T09:40:08.557Z,10.90
2018-08-28T09:41:08.544Z,10.10
2018-08-28T09:42:08.533Z,9.80
2018-08-28T09:43:08.520Z,10.50
2018-08-28T09:44:08.507Z,9.50
2018-08-28T09:45:08.495Z,9.90
2018-08-28T09:46:08.483Z,9.70
2018-08-28T09:47:08.474Z,9.80
2018-08-28T09:48:08.519Z,10.00
2018-08-28T09:49:08.446Z,9.80
2018-08-28T09:50:08.464Z,11.10
2018-08-28T09:51:08.466Z,11.00
2018-08-28T09:52:08.409Z,10.20
2018-08-28T09:53:08.398Z,10.90
2018-08-28T09:54:08.386Z,10.80
2018-08-28T09:55:08.374Z,11.00
2018-08-28T09:56:08.361Z,11.40
2018-08-28T09:57:08.350Z,12.00
2018-08-28T09:58:08.338Z,11.00
2018-08-28T09:59:08.326Z,10.90
2018-08-28T10:00:08.314Z,10.50
2018-08-28T10:01:08.402Z,11.20
2018-08-28T10:02:08.291Z,11.30
2018-08-28T10:03:08.279Z,10.70
2018-08-28T10:04:08.270Z,11.50
2018-08-28T10:05:08.258Z,10.60
2018-08-28T10:06:08.245Z,9.90
2018-08-28T10:07:08.231Z,11.00
2018-08-28T10:08:08.219Z,11.60
2018-08-28T10:09:08.210Z,12.40
2018-08-28T10:10:08.198Z,12.40
2018-08-28T10:11:08.184Z,11.10
2018-08-28T10:12:08.173Z,11.30
2018-08-28T10:13:08.160Z,11.20
2018-08-28T10:14:08.151Z,12.70
2018-08-28T10:15:08.139Z,12.10
2018-08-28T10:16:08.124Z,12.30
2018-08-28T10:17:08.117Z,11.90
2018-08-28T10:18:08.101Z,11.50
2018-08-28T10:19:08.190Z,11.70
2018-08-28T10:20:08.076Z,11.20
2018-08-28T10:21:08.065Z,11.90
2018-08-28T10:22:08.055Z,11.40
2018-08-28T10:23:08.042Z,11.30
2018-08-28T10:24:08.030Z,10.80
2018-08-28T10:25:08.018Z,11.30
2018-08-28T10:26:08.006Z,11.40
2018-08-28T10:27:07.998Z,11.30
2018-08-28T10:28:07.983Z,11.80
2018-08-28T10:29:07.971Z,11.00
2018-08-28T10:30:07.959Z,11.50
2018-08-28T10:31:08.049Z,12.60
2018-08-28T10:32:07.935Z,11.70
2018-08-28T10:33:07.926Z,11.80
2018-08-28T10:34:07.913Z,11.20
2018-08-28T10:35:07.946Z,11.00
2018-08-28T10:36:07.888Z,11.30
2018-08-28T10:37:07.978Z,11.90
2018-08-28T10:38:07.912Z,12.50
2018-08-28T10:39:07.854Z,10.60
2018-08-28T10:40:07.843Z,11.10
2018-08-28T10:41:07.830Z,10.90
2018-08-28T10:42:07.820Z,11.50
2018-08-28T10:43:07.808Z,11.30
2018-08-28T10:44:07.795Z,11.30
2018-08-28T10:45:07.783Z,10.80
2018-08-28T10:46:07.822Z,12.40
2018-08-28T10:47:07.760Z,10.30
2018-08-28T10:48:07.747Z,11.20
2018-08-28T10:49:07.737Z,11.10
2018-08-28T10:50:07.726Z,10.40
2018-08-28T10:51:07.713Z,11.60
2018-08-28T10:52:07.701Z,11.00
2018-08-28T10:53:07.691Z,11.70
2018-08-28T10:54:07.681Z,10.80
2018-08-28T10:55:07.667Z,10.70
2018-08-28T10:56:07.658Z,10.40
2018-08-28T10:57:07.644Z,11.60
2018-08-28T10:58:07.634Z,12.40
2018-08-28T10:59:07.622Z,12.40
2018-08-28T11:00:07.616Z,11.80
2018-08-28T11:01:07.798Z,12.30
2018-08-28T11:02:07.590Z,11.80
2018-08-28T11:03:07.577Z,11.50
2018-08-28T11:04:07.565Z,10.80
2018-08-28T11:05:07.557Z,11.10
2018-08-28T11:06:07.545Z,11.10
2018-08-28T11:07:07.531Z,10.60
2018-08-28T11:08:07.521Z,12.20
2018-08-28T11:09:07.508Z,12.20
2018-08-28T11:10:07.497Z,10.60
2018-08-28T11:11:07.487Z,11.60
2018-08-28T11:12:07.476Z,15.90
2018-08-28T11:13:07.467Z,11.60
2018-08-28T11:14:07.452Z,13.90
2018-08-28T11:15:07.442Z,11.30
2018-08-28T11:16:07.487Z,12.00
2018-08-28T11:17:07.425Z,11.10
2018-08-28T11:18:07.408Z,12.10
2018-08-28T11:19:07.397Z,11.10
2018-08-28T11:20:07.387Z,11.60
2018-08-28T11:21:07.374Z,11.90
2018-08-28T11:22:07.363Z,12.10
2018-08-28T11:23:07.352Z,12.00
2018-08-28T11:24:07.344Z,11.60
2018-08-28T11:25:07.329Z,11.30
2018-08-28T11:26:07.318Z,12.10
2018-08-28T11:27:07.317Z,12.60
2018-08-28T11:28:07.295Z,12.90
2018-08-28T11:29:07.305Z,11.60
2018-08-28T11:30:07.273Z,14.50
2018-08-28T11:31:07.278Z,11.80
2018-08-28T11:32:07.283Z,13.20
2018-08-28T11:33:07.239Z,12.90
2018-08-28T11:34:07.230Z,11.90
2018-08-28T11:35:07.236Z,12.00
2018-08-28T11:36:07.212Z,12.20
2018-08-28T11:37:07.199Z,12.40
2018-08-28T11:38:07.203Z,11.90
2018-08-28T11:39:07.175Z,11.50
2018-08-28T11:40:07.163Z,12.10
2018-08-28T11:41:07.151Z,13.80
2018-08-28T11:42:07.141Z,12.20
2018-08-28T11:43:07.132Z,13.40
2018-08-28T11:44:07.118Z,11.40
2018-08-28T11:45:07.108Z,12.20
2018-08-28T11:46:07.100Z,13.50
2018-08-28T11:47:07.100Z,13.00
2018-08-28T11:48:07.075Z,12.30
2018-08-28T11:49:07.065Z,12.00
2018-08-28T11:50:07.054Z,10.50
2018-08-28T11:51:07.046Z,11.50
2018-08-28T11:52:07.034Z,12.20
2018-08-28T11:53:07.035Z,11.30
2018-08-28T11:54:07.264Z,11.20
2018-08-28T11:55:07.001Z,11.40
2018-08-28T11:56:06.990Z,12.00
2018-08-28T11:57:06.981Z,11.20
2018-08-28T11:58:06.977Z,12.30
2018-08-28T11:59:06.960Z,12.10
2018-08-28T12:00:06.947Z,11.60
2018-08-28T12:01:06.941Z,11.80
2018-08-28T12:02:07.037Z,11.20
2018-08-28T12:03:06.915Z,11.40
2018-08-28T12:04:06.905Z,10.40
2018-08-28T12:05:07.020Z,10.90
2018-08-28T12:06:07.087Z,9.80
2018-08-28T12:07:06.886Z,10.50
2018-08-28T12:08:06.861Z,10.60
2018-08-28T12:09:06.851Z,10.10
2018-08-28T12:10:06.840Z,9.30
2018-08-28T12:11:06.832Z,10.10
2018-08-28T12:12:06.818Z,10.40
2018-08-28T12:13:06.863Z,10.80
2018-08-28T12:14:06.801Z,10.60
2018-08-28T12:15:06.788Z,11.30
2018-08-28T12:16:06.776Z,10.60
2018-08-28T12:17:06.766Z,10.80
2018-08-28T12:18:06.757Z,11.40
2018-08-28T12:19:06.748Z,10.30
2018-08-28T12:20:06.735Z,10.40
2018-08-28T12:21:06.782Z,10.70
2018-08-28T12:22:06.715Z,10.10
2018-08-28T12:23:06.703Z,10.00
2018-08-28T12:24:06.694Z,10.80
2018-08-28T12:25:06.682Z,12.40
2018-08-28T12:26:06.672Z,12.30
2018-08-28T12:27:06.664Z,11.90
2018-08-28T12:28:06.651Z,11.80
2018-08-28T12:29:06.646Z,12.30
2018-08-28T12:30:06.636Z,11.20
2018-08-28T12:31:06.626Z,11.10
2018-08-28T12:32:06.617Z,10.50
2018-08-28T12:33:06.606Z,11.40
2018-08-28T12:34:06.596Z,12.60
2018-08-28T12:35:06.586Z,11.90
2018-08-28T12:36:06.727Z,12.10
2018-08-28T12:37:06.607Z,12.80
2018-08-28T12:38:06.552Z,11.90
2018-08-28T12:39:06.544Z,12.10
2018-08-28T12:40:06.537Z,12.50
2018-08-28T12:41:06.526Z,11.60
2018-08-28T12:42:06.519Z,11.90
2018-08-28T12:43:06.503Z,10.80
2018-08-28T12:44:06.615Z,11.90
2018-08-28T12:45:06.490Z,12.30
2018-08-28T12:46:06.476Z,11.80
2018-08-28T12:47:06.465Z,12.70
2018-08-28T12:48:06.455Z,11.20
2018-08-28T12:49:06.445Z,12.50
2018-08-28T12:50:06.437Z,13.10
2018-08-28T12:51:06.449Z,12.10
2018-08-28T12:52:06.417Z,13.20
2018-08-28T12:53:06.409Z,12.00
2018-08-28T12:54:06.406Z,12.30
2018-08-28T12:55:06.404Z,12.20
2018-08-28T12:56:06.380Z,12.60
2018-08-28T12:57:06.371Z,10.90
2018-08-28T12:58:06.362Z,11.00
2018-08-28T12:59:06.354Z,11.80